Terminal Aerodrome Forecast
Issued by NWS

Home | Current Version | Previous Version | Graphics & Text | Print | Product List | Glossary On
Versions: 1 2 3 4 5 6 7 8 9 10 11 12 13 14 15 16 17 18 19 20 21 22 23
003
FTUS43 KTOP 251029 AAA
TAFMHK
TAF AMD
KMHK 251029Z 2510/2606 16010KT 6SM -SHRA BR VCTS BKN050CB
     FM251300 19010KT P6SM BKN025
     FM251700 19015G22KT P6SM SCT030
     FM252300 18010KT P6SM VCTS SCT030CB
     FM260200 19011KT P6SM SCT250=

USA.gov is the U.S. government's official web portal to all federal, state and local government web resources and services.